Pagrindinis puslapis
METAR-TAF:

METAR-TAF

Oro uostai :

Kosraė, Mikronezija

platuma: 05-21N, ilguma: 162-57E, Aukštis: 3 m

Dabartinis oras

Ataskaita buvo paskelbta 1 valandą ir 2 minutes, ne 20:50 UTC
Vėjas 9 kt iš Šiaurės Vakarų
Temperatūra 29°C
Drėgmė 74%
Slėgis 1011 hPa
Matomumas: 16.1 km
Išsisklaidę debesys ne aukštis 2000 ft, aukštai iškilę kamuoliniai debesys.
Su prošvaistėmis ne aukštis 30000 ft

METAR: PTSA 192050Z 31009KT 10SM SCT020TCU BKN300 29/24 A2985 RMK TCU W FIRST

Laikas: 08:52 (21:52 UTC)

Prognozė

Ataskaita buvo paskelbta 10 valandos ir 32 minutes, ne 11:20 UTC
Prognozė galioja nuo 19 metu 12 UTC su 20 metu 12 UTC
Vėjas 10 kt iš Šiaurės Vakarų
Matomumas: 10 km
Išsisklaidę debesys ne aukštis 2000 ft
Išsisklaidę debesys ne aukštis 13000 ft
Liūtis kaimynystėje

TAF: PTSA 191120Z 1912/2012 31010KT P6SM VCSH SCT020 SCT130

Orai ataskaitas ir orų prognozės (METAR, TAF).

turimą stotys yra geltonos ir raudonos taškus žemėlapyje.

Perkelti pele per norėdami pamatyti stoties vardą.

Tada spustelėkite, norėdami matyti oro stebėjimo ir prognozės.

Norėdami pakeisti žemėlapį: spustelėkite ant žalios mygtukų su juodo kryžiaus žemyn,; žalią mygtuką su brūkšneliu, jei norite nutolinti; arba žalių rodyklių gretimoms žemėlapius.


METAR-TAF: